x

St. Augustine, Fl (sauf1) Weather Station

9:00am - Fri 28th Jul 2017 All times are EDT. -4 hours from GMT.

  • Wind
    9mph, 11mph gusts
  • Sea Temp 76°f
  • Air Temp 81°f
  • Sea Pressure 1014.6mb
  • St. Augustine, Fl
  • St. Augustine, Fl

More Historic Weather Station data

Upgrade to MSW Pro to gain access to the past 30 days of data for over 8000 Wavebouys and Weather Stations around the globe.

Join Pro

Comparision Forecast

View Surf forecast
   
Fri 07/28 9:00am 9 11 mph 1014.6mb 76f 81f
8:00am 8 9 mph 1014.4mb 76f 78f
7:00am 6 8 mph 1014.2mb 76f 77f
6:00am 6 7 mph 1013.6mb 76f 77f
5:00am 6 8 mph 1013.4mb 76f 77f
4:00am 5 6 mph 1013mb 76f 77f
3:00am 8 10 mph 1013.3mb 76f 77f
2:00am 6 7 mph 1014.2mb 76f 78f
1:00am 6 7 mph 1014.8mb 76f 79f
12:00am 6 8 mph 1015mb 76f 79f
Thu 07/27 11:00pm 3 3 mph 1014.9mb 77f 79f
10:00pm 6 7 mph 1014.8mb 78f 80f
9:00pm 11 11 mph 1014.5mb 78f 80f
8:00pm 2 3 mph 1014.6mb 78f 79f
7:00pm 7 7 mph 1014.4mb 78f 79f
6:00pm 5 5 mph 1014.5mb 78f 79f
5:00pm 2 3 mph 1014.8mb 78f 78f
4:00pm 7 8 mph 1015.6mb 78f 79f
3:00pm 6 7 mph 1015.5mb 77f 80f
2:00pm 9 10 mph 1015.8mb 77f 79f
1:00pm 10 10 mph 1016.3mb 76f 79f
12:00pm 11 13 mph 1016.7mb 76f 78f
11:00am 10 11 mph 1016.9mb 75f 78f
10:00am 5 6 mph 1016.9mb 75f 77f
9:00am 6 7 mph 1017mb 75f 78f
8:00am 2 3 mph 1016.7mb 75f 78f
7:00am 3 5 mph 1016.5mb 75f 78f
6:00am 5 6 mph 1016.4mb 75f 78f
5:00am 9 10 mph 1016.1mb 75f 78f
4:00am 7 8 mph 1016mb 75f 79f
3:00am 10 11 mph 1016.5mb 75f 80f
2:00am 6 7 mph 1016.8mb 75f 80f
1:00am 7 8 mph 1016.5mb 75f 80f
12:00am 6 6 mph 1016.7mb 75f 78f
Wed 07/26 11:00pm 6 7 mph 1017.2mb 75f 78f
10:00pm  -  1 mph 1017.7mb 76f 79f
9:00pm 10 11 mph 1017.1mb 77f 79f
8:00pm 8 9 mph 1016.9mb 77f 80f
7:00pm 7 7 mph 1016.6mb 78f 80f
6:00pm 18 22 mph 1016.1mb 78f 76f
5:00pm 11 13 mph 1016.7mb 78f 80f
4:00pm 14 14 mph 1017.3mb 77f 80f
3:00pm 13 13 mph 1018.2mb 77f 80f
2:00pm 10 13 mph 1018.7mb 74f 84f
1:00pm 8 9 mph 1019.2mb 74f 89f
12:00pm 9 11 mph 1019.4mb 74f 87f
11:00am 6 8 mph 1019.7mb 74f 86f
10:00am 7 9 mph 1019.9mb 74f 84f
9:00am 6 7 mph 1019.8mb 74f 80f
8:00am 5 6 mph 1019.6mb 74f 78f
7:00am 5 6 mph 1019.1mb 74f 77f
6:00am 7 8 mph 1018.6mb 74f 77f
5:00am 7 8 mph 1018.2mb 74f 78f
4:00am 7 9 mph 1018.4mb 74f 78f
3:00am 8 10 mph 1018.6mb 74f 78f
2:00am 6 7 mph 1018.6mb 74f 79f
1:00am 5 5 mph 1018.8mb 74f 79f
12:00am 3 5 mph 1019.3mb 74f 78f
Tue 07/25 11:00pm 5 5 mph 1019.3mb 74f 78f
10:00pm 5 6 mph 1019.1mb 74f 79f
9:00pm 7 7 mph 1019.4mb 74f 81f
8:00pm 8 9 mph 1018.8mb 75f 81f
7:00pm 8 8 mph 1018.4mb 76f 80f
6:00pm 10 10 mph 1018.4mb 78f 80f
5:00pm 2 2 mph 1018.5mb 78f 79f
4:00pm 8 10 mph 1019.5mb 78f 82f
3:00pm 5 6 mph 1019.5mb 78f 80f
2:00pm 13 13 mph 1020mb 76f 80f
1:00pm 13 14 mph 1020.5mb 75f 80f
12:00pm 5 7 mph 1020.7mb 74f 88f
11:00am 9 10 mph 1020.8mb 74f 86f
10:00am 7 9 mph 1020.8mb 74f 85f
9:00am 7 10 mph 1020.9mb 74f 82f
8:00am 3 5 mph 1020.4mb 74f 79f
7:00am 3 5 mph 1019.5mb 74f 76f
6:00am 3 5 mph 1018.8mb 74f 76f
5:00am 5 6 mph 1018.4mb 74f 77f
4:00am 5 6 mph 1018.1mb 74f 78f
3:00am 5 7 mph 1018.2mb 74f 78f
2:00am 7 8 mph 1018.3mb 74f 78f
1:00am 8 11 mph 1018.6mb 74f 79f
12:00am 8 9 mph 1018.6mb 74f 80f
Mon 07/24 11:00pm 7 9 mph 1018.6mb 74f 80f
10:00pm 8 9 mph 1018.2mb 74f 81f
9:00pm 8 9 mph 1017.4mb 74f 83f
8:00pm 9 11 mph 1017mb 74f 85f
7:00pm 11 14 mph 1016.3mb 75f 86f
6:00pm 11 15 mph 1016mb 77f 86f
5:00pm 13 16 mph 1016.4mb 76f 86f
4:00pm 16 20 mph 1016.3mb 77f 87f
3:00pm 16 20 mph 1016.9mb 76f 86f